Terminal Aerodrome Forecast
Issued by NWS Upton, NY

Home | Current Version | Previous Version | Text Only | Print | Product List | Glossary On
Versions: 1 2 3 4 5 6 7 8 9 10 11 12 13 14 15 16 17 18 19 20 21 22 23 24
000
FTUS41 KOKX 132300
TAFBDR
TAF
KBDR 132330Z 1400/1424 19015G20KT P6SM BKN060 BKN100
     FM140100 19012KT P6SM BKN060 BKN100
      TEMPO 1404/1407 4SM SHRA BKN040
     FM140700 19010KT 3SM BR SCT007 BKN040 BKN080
     FM141500 21007KT P6SM SCT025 BKN040
     FM141900 20010KT P6SM BKN040
     FM142200 22008KT P6SM SHRA BKN040 PROB30 1422/1424 TSRA
      BKN040CB=

USA.gov is the U.S. government's official web portal to all federal, state and local government web resources and services.